sensor_id;sensor_type;location;lat;lon;timestamp;P1;durP1;ratioP1;P2;durP2;ratioP2
51943;SDS011;37969;53.132;6.370;2023-01-05T00:02:25;56.22;;;12.10;;
51943;SDS011;37969;53.132;6.370;2023-01-05T00:04:51;41.42;;;8.75;;
51943;SDS011;37969;53.132;6.370;2023-01-05T00:07:17;62.13;;;16.35;;
51943;SDS011;37969;53.132;6.370;2023-01-05T00:09:43;68.95;;;18.90;;
51943;SDS011;37969;53.132;6.370;2023-01-05T00:12:09;67.47;;;20.73;;
51943;SDS011;37969;53.132;6.370;2023-01-05T00:14:54;46.10;;;12.32;;
51943;SDS011;37969;53.132;6.370;2023-01-05T00:17:39;62.45;;;15.77;;
51943;SDS011;37969;53.132;6.370;2023-01-05T00:20:23;63.35;;;19.08;;
51943;SDS011;37969;53.132;6.370;2023-01-05T00:23:08;58.60;;;16.52;;
51943;SDS011;37969;53.132;6.370;2023-01-05T00:25:36;84.60;;;20.05;;
51943;SDS011;37969;53.132;6.370;2023-01-05T00:28:02;59.70;;;11.77;;
51943;SDS011;37969;53.132;6.370;2023-01-05T00:30:31;74.07;;;14.88;;
51943;SDS011;37969;53.132;6.370;2023-01-05T00:35:24;69.50;;;17.95;;
51943;SDS011;37969;53.132;6.370;2023-01-05T00:37:51;65.38;;;17.25;;
51943;SDS011;37969;53.132;6.370;2023-01-05T00:40:18;56.25;;;10.75;;
51943;SDS011;37969;53.132;6.370;2023-01-05T00:42:44;78.35;;;20.13;;
51943;SDS011;37969;53.132;6.370;2023-01-05T00:45:12;75.07;;;16.15;;
51943;SDS011;37969;53.132;6.370;2023-01-05T00:47:38;69.25;;;20.88;;
51943;SDS011;37969;53.132;6.370;2023-01-05T00:50:05;48.53;;;11.48;;
51943;SDS011;37969;53.132;6.370;2023-01-05T00:52:31;61.10;;;14.50;;
51943;SDS011;37969;53.132;6.370;2023-01-05T00:54:57;57.47;;;11.30;;
51943;SDS011;37969;53.132;6.370;2023-01-05T00:57:24;48.38;;;9.95;;
51943;SDS011;37969;53.132;6.370;2023-01-05T00:59:50;61.50;;;11.48;;
51943;SDS011;37969;53.132;6.370;2023-01-05T01:02:16;54.30;;;12.07;;
51943;SDS011;37969;53.132;6.370;2023-01-05T01:04:42;48.30;;;10.57;;
51943;SDS011;37969;53.132;6.370;2023-01-05T01:07:08;44.70;;;8.00;;
51943;SDS011;37969;53.132;6.370;2023-01-05T01:09:34;42.58;;;9.48;;
51943;SDS011;37969;53.132;6.370;2023-01-05T01:12:01;47.17;;;9.52;;
51943;SDS011;37969;53.132;6.370;2023-01-05T01:14:28;42.75;;;8.95;;
51943;SDS011;37969;53.132;6.370;2023-01-05T01:16:54;49.03;;;7.50;;
51943;SDS011;37969;53.132;6.370;2023-01-05T01:19:21;48.40;;;9.80;;
51943;SDS011;37969;53.132;6.370;2023-01-05T01:21:48;43.22;;;8.23;;
51943;SDS011;37969;53.132;6.370;2023-01-05T01:24:15;41.33;;;7.90;;
51943;SDS011;37969;53.132;6.370;2023-01-05T01:26:42;46.50;;;9.07;;
51943;SDS011;37969;53.132;6.370;2023-01-05T01:29:08;50.72;;;11.15;;
51943;SDS011;37969;53.132;6.370;2023-01-05T01:31:34;43.80;;;9.85;;
51943;SDS011;37969;53.132;6.370;2023-01-05T01:34:01;44.67;;;8.40;;
51943;SDS011;37969;53.132;6.370;2023-01-05T01:36:27;57.45;;;12.68;;
51943;SDS011;37969;53.132;6.370;2023-01-05T01:38:54;46.83;;;9.35;;
51943;SDS011;37969;53.132;6.370;2023-01-05T01:41:20;36.03;;;9.02;;
51943;SDS011;37969;53.132;6.370;2023-01-05T01:43:47;40.63;;;8.95;;
51943;SDS011;37969;53.132;6.370;2023-01-05T01:46:14;40.00;;;9.07;;
51943;SDS011;37969;53.132;6.370;2023-01-05T01:48:44;27.40;;;6.07;;
51943;SDS011;37969;53.132;6.370;2023-01-05T01:51:13;40.88;;;8.25;;
51943;SDS011;37969;53.132;6.370;2023-01-05T01:53:42;52.15;;;11.30;;
51943;SDS011;37969;53.132;6.370;2023-01-05T01:56:10;47.47;;;9.45;;
51943;SDS011;37969;53.132;6.370;2023-01-05T01:58:38;40.90;;;6.70;;
51943;SDS011;37969;53.132;6.370;2023-01-05T02:01:04;41.85;;;9.65;;
51943;SDS011;37969;53.132;6.370;2023-01-05T02:03:31;42.72;;;8.20;;
51943;SDS011;37969;53.132;6.370;2023-01-05T02:05:57;41.10;;;10.32;;
51943;SDS011;37969;53.132;6.370;2023-01-05T02:08:25;29.95;;;5.68;;
51943;SDS011;37969;53.132;6.370;2023-01-05T02:15:57;33.38;;;5.75;;
51943;SDS011;37969;53.132;6.370;2023-01-05T02:21:00;30.08;;;4.75;;
51943;SDS011;37969;53.132;6.370;2023-01-05T02:23:44;38.90;;;6.32;;
51943;SDS011;37969;53.132;6.370;2023-01-05T02:31:13;41.42;;;6.93;;
51943;SDS011;37969;53.132;6.370;2023-01-05T02:36:41;35.33;;;5.60;;
51943;SDS011;37969;53.132;6.370;2023-01-05T02:39:13;38.58;;;6.03;;
51943;SDS011;37969;53.132;6.370;2023-01-05T02:41:46;44.47;;;6.13;;
51943;SDS011;37969;53.132;6.370;2023-01-05T02:44:15;39.55;;;6.15;;
51943;SDS011;37969;53.132;6.370;2023-01-05T02:46:41;32.13;;;4.43;;
51943;SDS011;37969;53.132;6.370;2023-01-05T02:49:08;41.60;;;6.55;;
51943;SDS011;37969;53.132;6.370;2023-01-05T02:51:35;42.83;;;6.15;;
51943;SDS011;37969;53.132;6.370;2023-01-05T02:54:04;36.13;;;6.03;;
51943;SDS011;37969;53.132;6.370;2023-01-05T02:56:36;46.03;;;7.00;;
51943;SDS011;37969;53.132;6.370;2023-01-05T02:59:06;42.20;;;5.75;;
51943;SDS011;37969;53.132;6.370;2023-01-05T03:01:35;39.63;;;5.80;;
51943;SDS011;37969;53.132;6.370;2023-01-05T03:04:04;28.13;;;4.67;;
51943;SDS011;37969;53.132;6.370;2023-01-05T03:06:35;39.30;;;5.63;;
51943;SDS011;37969;53.132;6.370;2023-01-05T03:09:11;31.80;;;4.82;;
51943;SDS011;37969;53.132;6.370;2023-01-05T03:11:42;31.70;;;5.38;;
51943;SDS011;37969;53.132;6.370;2023-01-05T03:14:31;51.13;;;5.90;;
51943;SDS011;37969;53.132;6.370;2023-01-05T03:16:58;31.08;;;5.30;;
51943;SDS011;37969;53.132;6.370;2023-01-05T03:19:25;33.85;;;4.78;;
51943;SDS011;37969;53.132;6.370;2023-01-05T03:22:12;27.35;;;4.78;;
51943;SDS011;37969;53.132;6.370;2023-01-05T03:24:58;38.90;;;5.32;;
51943;SDS011;37969;53.132;6.370;2023-01-05T03:27:43;33.35;;;5.80;;
51943;SDS011;37969;53.132;6.370;2023-01-05T03:30:33;33.20;;;4.97;;
51943;SDS011;37969;53.132;6.370;2023-01-05T03:33:28;37.30;;;5.93;;
51943;SDS011;37969;53.132;6.370;2023-01-05T03:36:20;32.10;;;4.55;;
51943;SDS011;37969;53.132;6.370;2023-01-05T03:38:48;28.63;;;5.38;;
51943;SDS011;37969;53.132;6.370;2023-01-05T03:41:15;31.08;;;5.88;;
51943;SDS011;37969;53.132;6.370;2023-01-05T03:43:42;32.70;;;4.85;;
51943;SDS011;37969;53.132;6.370;2023-01-05T03:46:09;40.38;;;6.43;;
51943;SDS011;37969;53.132;6.370;2023-01-05T03:48:36;34.60;;;5.30;;
51943;SDS011;37969;53.132;6.370;2023-01-05T03:51:03;35.05;;;5.10;;
51943;SDS011;37969;53.132;6.370;2023-01-05T03:53:29;40.40;;;6.15;;
51943;SDS011;37969;53.132;6.370;2023-01-05T03:55:55;33.17;;;4.97;;
51943;SDS011;37969;53.132;6.370;2023-01-05T03:58:21;40.42;;;6.57;;
51943;SDS011;37969;53.132;6.370;2023-01-05T04:00:47;40.42;;;6.22;;
51943;SDS011;37969;53.132;6.370;2023-01-05T04:03:13;38.30;;;5.93;;
51943;SDS011;37969;53.132;6.370;2023-01-05T04:05:40;33.83;;;5.15;;
51943;SDS011;37969;53.132;6.370;2023-01-05T04:08:06;31.67;;;4.85;;
51943;SDS011;37969;53.132;6.370;2023-01-05T04:10:32;37.15;;;5.25;;
51943;SDS011;37969;53.132;6.370;2023-01-05T04:12:58;36.33;;;6.15;;
51943;SDS011;37969;53.132;6.370;2023-01-05T04:15:25;34.60;;;5.38;;
51943;SDS011;37969;53.132;6.370;2023-01-05T04:17:51;46.83;;;5.65;;
51943;SDS011;37969;53.132;6.370;2023-01-05T04:20:17;42.25;;;6.40;;
51943;SDS011;37969;53.132;6.370;2023-01-05T04:22:43;35.70;;;5.97;;
51943;SDS011;37969;53.132;6.370;2023-01-05T04:25:09;42.20;;;8.00;;
51943;SDS011;37969;53.132;6.370;2023-01-05T04:27:35;40.50;;;5.90;;
51943;SDS011;37969;53.132;6.370;2023-01-05T04:30:02;33.65;;;4.88;;
51943;SDS011;37969;53.132;6.370;2023-01-05T04:32:28;28.60;;;5.18;;
51943;SDS011;37969;53.132;6.370;2023-01-05T04:34:54;29.48;;;5.25;;
51943;SDS011;37969;53.132;6.370;2023-01-05T04:37:20;33.97;;;5.55;;
51943;SDS011;37969;53.132;6.370;2023-01-05T04:39:47;35.35;;;5.65;;
51943;SDS011;37969;53.132;6.370;2023-01-05T04:42:13;33.38;;;5.82;;
51943;SDS011;37969;53.132;6.370;2023-01-05T04:44:39;33.30;;;4.78;;
51943;SDS011;37969;53.132;6.370;2023-01-05T04:47:05;29.23;;;5.10;;
51943;SDS011;37969;53.132;6.370;2023-01-05T04:49:31;37.03;;;5.78;;
51943;SDS011;37969;53.132;6.370;2023-01-05T04:51:57;31.80;;;5.63;;
51943;SDS011;37969;53.132;6.370;2023-01-05T04:54:24;39.13;;;5.50;;
51943;SDS011;37969;53.132;6.370;2023-01-05T04:56:50;27.98;;;4.97;;
51943;SDS011;37969;53.132;6.370;2023-01-05T04:59:16;37.50;;;6.35;;
51943;SDS011;37969;53.132;6.370;2023-01-05T05:01:42;37.53;;;4.97;;
51943;SDS011;37969;53.132;6.370;2023-01-05T05:04:08;27.13;;;4.40;;
51943;SDS011;37969;53.132;6.370;2023-01-05T05:06:34;31.02;;;4.78;;
51943;SDS011;37969;53.132;6.370;2023-01-05T05:09:01;37.05;;;5.68;;
51943;SDS011;37969;53.132;6.370;2023-01-05T05:11:27;35.42;;;5.45;;
51943;SDS011;37969;53.132;6.370;2023-01-05T05:13:53;32.28;;;4.32;;
51943;SDS011;37969;53.132;6.370;2023-01-05T05:16:19;28.40;;;4.93;;
51943;SDS011;37969;53.132;6.370;2023-01-05T05:18:45;32.60;;;4.55;;
51943;SDS011;37969;53.132;6.370;2023-01-05T05:21:11;30.40;;;4.60;;
51943;SDS011;37969;53.132;6.370;2023-01-05T05:23:37;31.50;;;5.50;;
51943;SDS011;37969;53.132;6.370;2023-01-05T05:26:04;35.13;;;5.40;;
51943;SDS011;37969;53.132;6.370;2023-01-05T05:28:30;31.73;;;5.53;;
51943;SDS011;37969;53.132;6.370;2023-01-05T05:30:56;32.63;;;4.68;;
51943;SDS011;37969;53.132;6.370;2023-01-05T05:33:22;33.58;;;6.18;;
51943;SDS011;37969;53.132;6.370;2023-01-05T05:35:49;32.78;;;5.57;;
51943;SDS011;37969;53.132;6.370;2023-01-05T05:38:15;39.55;;;6.07;;
51943;SDS011;37969;53.132;6.370;2023-01-05T05:40:41;29.10;;;4.95;;
51943;SDS011;37969;53.132;6.370;2023-01-05T05:43:07;37.83;;;6.22;;
51943;SDS011;37969;53.132;6.370;2023-01-05T05:45:34;37.95;;;5.35;;
51943;SDS011;37969;53.132;6.370;2023-01-05T05:48:00;31.02;;;4.80;;
51943;SDS011;37969;53.132;6.370;2023-01-05T05:50:26;35.45;;;5.68;;
51943;SDS011;37969;53.132;6.370;2023-01-05T05:52:52;34.15;;;5.75;;
51943;SDS011;37969;53.132;6.370;2023-01-05T05:55:19;33.22;;;5.53;;
51943;SDS011;37969;53.132;6.370;2023-01-05T05:57:45;31.55;;;5.13;;
51943;SDS011;37969;53.132;6.370;2023-01-05T06:00:11;30.02;;;5.00;;
51943;SDS011;37969;53.132;6.370;2023-01-05T06:02:37;25.95;;;4.00;;
51943;SDS011;37969;53.132;6.370;2023-01-05T06:05:04;35.92;;;5.25;;
51943;SDS011;37969;53.132;6.370;2023-01-05T06:07:30;37.08;;;4.78;;
51943;SDS011;37969;53.132;6.370;2023-01-05T06:09:56;29.58;;;4.30;;
51943;SDS011;37969;53.132;6.370;2023-01-05T06:12:22;35.72;;;4.78;;
51943;SDS011;37969;53.132;6.370;2023-01-05T06:14:48;27.58;;;4.47;;
51943;SDS011;37969;53.132;6.370;2023-01-05T06:17:15;34.05;;;4.80;;
51943;SDS011;37969;53.132;6.370;2023-01-05T06:19:41;29.20;;;5.45;;
51943;SDS011;37969;53.132;6.370;2023-01-05T06:22:07;36.35;;;5.05;;
51943;SDS011;37969;53.132;6.370;2023-01-05T06:24:33;34.80;;;5.07;;
51943;SDS011;37969;53.132;6.370;2023-01-05T06:26:59;35.78;;;5.47;;
51943;SDS011;37969;53.132;6.370;2023-01-05T06:29:25;25.75;;;4.45;;
51943;SDS011;37969;53.132;6.370;2023-01-05T06:31:52;22.23;;;5.28;;
51943;SDS011;37969;53.132;6.370;2023-01-05T06:34:18;24.33;;;4.55;;
51943;SDS011;37969;53.132;6.370;2023-01-05T06:36:44;32.83;;;5.43;;
51943;SDS011;37969;53.132;6.370;2023-01-05T06:39:10;33.30;;;5.28;;
51943;SDS011;37969;53.132;6.370;2023-01-05T06:41:36;34.28;;;4.88;;
51943;SDS011;37969;53.132;6.370;2023-01-05T06:44:02;26.13;;;4.85;;
51943;SDS011;37969;53.132;6.370;2023-01-05T06:46:29;32.33;;;4.75;;
51943;SDS011;37969;53.132;6.370;2023-01-05T06:48:55;23.83;;;4.38;;
51943;SDS011;37969;53.132;6.370;2023-01-05T06:51:22;36.45;;;5.70;;
51943;SDS011;37969;53.132;6.370;2023-01-05T06:53:48;36.42;;;5.30;;
51943;SDS011;37969;53.132;6.370;2023-01-05T06:56:14;26.75;;;3.55;;
51943;SDS011;37969;53.132;6.370;2023-01-05T06:58:40;31.40;;;5.05;;
51943;SDS011;37969;53.132;6.370;2023-01-05T07:01:06;36.72;;;5.50;;
51943;SDS011;37969;53.132;6.370;2023-01-05T07:03:32;25.38;;;4.57;;
51943;SDS011;37969;53.132;6.370;2023-01-05T07:05:59;31.80;;;5.32;;
51943;SDS011;37969;53.132;6.370;2023-01-05T07:08:25;31.60;;;5.00;;
51943;SDS011;37969;53.132;6.370;2023-01-05T07:10:51;25.65;;;5.50;;
51943;SDS011;37969;53.132;6.370;2023-01-05T07:13:17;33.72;;;5.15;;
51943;SDS011;37969;53.132;6.370;2023-01-05T07:15:43;25.58;;;4.53;;
51943;SDS011;37969;53.132;6.370;2023-01-05T07:18:09;27.80;;;4.85;;
51943;SDS011;37969;53.132;6.370;2023-01-05T07:20:36;31.85;;;5.20;;
51943;SDS011;37969;53.132;6.370;2023-01-05T07:23:02;28.85;;;4.57;;
51943;SDS011;37969;53.132;6.370;2023-01-05T07:25:28;33.08;;;6.13;;
51943;SDS011;37969;53.132;6.370;2023-01-05T07:27:56;35.22;;;5.70;;
51943;SDS011;37969;53.132;6.370;2023-01-05T07:30:23;33.45;;;4.25;;
51943;SDS011;37969;53.132;6.370;2023-01-05T07:32:49;29.35;;;4.70;;
51943;SDS011;37969;53.132;6.370;2023-01-05T07:35:15;28.85;;;5.28;;
51943;SDS011;37969;53.132;6.370;2023-01-05T07:37:41;25.13;;;4.45;;
51943;SDS011;37969;53.132;6.370;2023-01-05T07:40:09;32.60;;;4.18;;
51943;SDS011;37969;53.132;6.370;2023-01-05T07:42:35;34.92;;;5.47;;
51943;SDS011;37969;53.132;6.370;2023-01-05T07:45:01;28.38;;;5.38;;
51943;SDS011;37969;53.132;6.370;2023-01-05T07:47:28;35.40;;;4.85;;
51943;SDS011;37969;53.132;6.370;2023-01-05T07:49:55;33.78;;;5.82;;
51943;SDS011;37969;53.132;6.370;2023-01-05T07:52:21;26.02;;;4.95;;
51943;SDS011;37969;53.132;6.370;2023-01-05T07:54:47;28.13;;;3.83;;
51943;SDS011;37969;53.132;6.370;2023-01-05T07:57:13;23.50;;;5.05;;
51943;SDS011;37969;53.132;6.370;2023-01-05T07:59:39;28.58;;;4.68;;
51943;SDS011;37969;53.132;6.370;2023-01-05T08:02:07;31.70;;;4.68;;
51943;SDS011;37969;53.132;6.370;2023-01-05T08:04:33;26.88;;;4.13;;
51943;SDS011;37969;53.132;6.370;2023-01-05T08:06:59;28.42;;;5.07;;
51943;SDS011;37969;53.132;6.370;2023-01-05T08:09:26;41.70;;;6.10;;
51943;SDS011;37969;53.132;6.370;2023-01-05T08:12:11;33.50;;;5.45;;
51943;SDS011;37969;53.132;6.370;2023-01-05T08:14:37;22.00;;;4.28;;
51943;SDS011;37969;53.132;6.370;2023-01-05T08:17:03;39.05;;;5.93;;
51943;SDS011;37969;53.132;6.370;2023-01-05T08:19:29;31.05;;;4.50;;
51943;SDS011;37969;53.132;6.370;2023-01-05T08:21:55;27.75;;;4.15;;
51943;SDS011;37969;53.132;6.370;2023-01-05T08:24:21;28.90;;;5.22;;
51943;SDS011;37969;53.132;6.370;2023-01-05T08:26:48;37.28;;;6.18;;
51943;SDS011;37969;53.132;6.370;2023-01-05T08:29:15;30.10;;;4.65;;
51943;SDS011;37969;53.132;6.370;2023-01-05T08:31:41;33.53;;;5.15;;
51943;SDS011;37969;53.132;6.370;2023-01-05T08:34:07;34.47;;;5.63;;
51943;SDS011;37969;53.132;6.370;2023-01-05T08:36:34;35.88;;;7.75;;
51943;SDS011;37969;53.132;6.370;2023-01-05T08:39:01;29.33;;;4.63;;
51943;SDS011;37969;53.132;6.370;2023-01-05T08:41:30;42.20;;;9.73;;
51943;SDS011;37969;53.132;6.370;2023-01-05T08:43:57;98.90;;;29.10;;
51943;SDS011;37969;53.132;6.370;2023-01-05T08:46:24;35.65;;;9.77;;
51943;SDS011;37969;53.132;6.370;2023-01-05T08:48:52;53.78;;;17.20;;
51943;SDS011;37969;53.132;6.370;2023-01-05T08:51:18;71.05;;;25.80;;
51943;SDS011;37969;53.132;6.370;2023-01-05T08:53:45;40.35;;;6.60;;
51943;SDS011;37969;53.132;6.370;2023-01-05T08:56:11;31.15;;;5.80;;
51943;SDS011;37969;53.132;6.370;2023-01-05T08:58:38;39.15;;;6.63;;
51943;SDS011;37969;53.132;6.370;2023-01-05T09:01:05;35.30;;;13.32;;
51943;SDS011;37969;53.132;6.370;2023-01-05T09:03:32;23.98;;;4.75;;
51943;SDS011;37969;53.132;6.370;2023-01-05T09:05:58;32.03;;;5.75;;
51943;SDS011;37969;53.132;6.370;2023-01-05T09:08:27;29.58;;;5.38;;
51943;SDS011;37969;53.132;6.370;2023-01-05T09:10:53;24.73;;;4.20;;
51943;SDS011;37969;53.132;6.370;2023-01-05T09:13:19;42.13;;;9.55;;
51943;SDS011;37969;53.132;6.370;2023-01-05T09:15:45;36.17;;;6.68;;
51943;SDS011;37969;53.132;6.370;2023-01-05T09:18:12;30.95;;;4.32;;
51943;SDS011;37969;53.132;6.370;2023-01-05T09:20:38;25.90;;;4.47;;
51943;SDS011;37969;53.132;6.370;2023-01-05T09:23:04;26.65;;;5.85;;
51943;SDS011;37969;53.132;6.370;2023-01-05T09:25:30;29.58;;;4.95;;
51943;SDS011;37969;53.132;6.370;2023-01-05T09:27:56;26.92;;;5.00;;
51943;SDS011;37969;53.132;6.370;2023-01-05T09:30:22;29.08;;;5.15;;
51943;SDS011;37969;53.132;6.370;2023-01-05T09:32:48;26.45;;;6.35;;
51943;SDS011;37969;53.132;6.370;2023-01-05T09:35:15;55.25;;;19.30;;
51943;SDS011;37969;53.132;6.370;2023-01-05T09:37:41;21.45;;;4.28;;
51943;SDS011;37969;53.132;6.370;2023-01-05T09:40:08;29.65;;;4.20;;
51943;SDS011;37969;53.132;6.370;2023-01-05T09:42:34;30.83;;;5.53;;
51943;SDS011;37969;53.132;6.370;2023-01-05T09:45:03;36.38;;;5.55;;
51943;SDS011;37969;53.132;6.370;2023-01-05T09:47:39;26.90;;;6.60;;
51943;SDS011;37969;53.132;6.370;2023-01-05T09:50:07;31.83;;;6.18;;
51943;SDS011;37969;53.132;6.370;2023-01-05T09:52:34;35.05;;;10.43;;
51943;SDS011;37969;53.132;6.370;2023-01-05T09:55:02;29.08;;;5.35;;
51943;SDS011;37969;53.132;6.370;2023-01-05T09:57:28;26.35;;;6.20;;
51943;SDS011;37969;53.132;6.370;2023-01-05T09:59:56;41.28;;;10.95;;
51943;SDS011;37969;53.132;6.370;2023-01-05T10:04:52;31.70;;;4.95;;
51943;SDS011;37969;53.132;6.370;2023-01-05T10:07:27;24.02;;;3.58;;
51943;SDS011;37969;53.132;6.370;2023-01-05T10:09:54;26.52;;;4.65;;
51943;SDS011;37969;53.132;6.370;2023-01-05T10:12:24;20.35;;;3.90;;
51943;SDS011;37969;53.132;6.370;2023-01-05T10:15:11;31.55;;;3.85;;
51943;SDS011;37969;53.132;6.370;2023-01-05T10:17:38;18.52;;;3.33;;
51943;SDS011;37969;53.132;6.370;2023-01-05T10:22:47;23.77;;;3.78;;
51943;SDS011;37969;53.132;6.370;2023-01-05T10:25:20;31.58;;;4.60;;
51943;SDS011;37969;53.132;6.370;2023-01-05T10:30:39;38.95;;;4.88;;
51943;SDS011;37969;53.132;6.370;2023-01-05T10:33:12;35.08;;;4.60;;
51943;SDS011;37969;53.132;6.370;2023-01-05T10:35:44;34.28;;;5.30;;
51943;SDS011;37969;53.132;6.370;2023-01-05T10:38:22;35.13;;;5.65;;
51943;SDS011;37969;53.132;6.370;2023-01-05T10:45:48;29.33;;;6.57;;
51943;SDS011;37969;53.132;6.370;2023-01-05T10:48:15;35.15;;;5.55;;
51943;SDS011;37969;53.132;6.370;2023-01-05T10:50:43;40.58;;;11.77;;
51943;SDS011;37969;53.132;6.370;2023-01-05T10:53:11;39.20;;;5.50;;
51943;SDS011;37969;53.132;6.370;2023-01-05T10:55:42;41.78;;;5.95;;
51943;SDS011;37969;53.132;6.370;2023-01-05T10:58:28;41.30;;;7.25;;
51943;SDS011;37969;53.132;6.370;2023-01-05T11:00:55;30.92;;;7.45;;
51943;SDS011;37969;53.132;6.370;2023-01-05T11:03:26;31.48;;;5.20;;
51943;SDS011;37969;53.132;6.370;2023-01-05T11:05:53;61.85;;;26.20;;
51943;SDS011;37969;53.132;6.370;2023-01-05T11:08:21;40.67;;;13.05;;
51943;SDS011;37969;53.132;6.370;2023-01-05T11:10:51;30.80;;;8.00;;
51943;SDS011;37969;53.132;6.370;2023-01-05T11:13:23;25.17;;;5.72;;
51943;SDS011;37969;53.132;6.370;2023-01-05T11:15:53;25.00;;;6.60;;
51943;SDS011;37969;53.132;6.370;2023-01-05T11:18:30;15.75;;;3.30;;
51943;SDS011;37969;53.132;6.370;2023-01-05T11:21:03;22.98;;;3.90;;
51943;SDS011;37969;53.132;6.370;2023-01-05T11:23:33;19.30;;;3.47;;
51943;SDS011;37969;53.132;6.370;2023-01-05T11:28:55;12.48;;;2.90;;
51943;SDS011;37969;53.132;6.370;2023-01-05T11:31:22;25.15;;;8.27;;
51943;SDS011;37969;53.132;6.370;2023-01-05T11:33:53;16.92;;;3.90;;
51943;SDS011;37969;53.132;6.370;2023-01-05T11:36:20;18.48;;;4.30;;
51943;SDS011;37969;53.132;6.370;2023-01-05T11:38:49;24.02;;;4.25;;
51943;SDS011;37969;53.132;6.370;2023-01-05T11:41:16;32.10;;;10.25;;
51943;SDS011;37969;53.132;6.370;2023-01-05T11:43:44;23.13;;;3.72;;
51943;SDS011;37969;53.132;6.370;2023-01-05T11:46:11;24.42;;;5.97;;
51943;SDS011;37969;53.132;6.370;2023-01-05T11:48:40;26.08;;;6.07;;
51943;SDS011;37969;53.132;6.370;2023-01-05T11:51:30;20.95;;;4.25;;
51943;SDS011;37969;53.132;6.370;2023-01-05T11:53:57;70.30;;;28.55;;
51943;SDS011;37969;53.132;6.370;2023-01-05T11:56:23;28.20;;;8.00;;
51943;SDS011;37969;53.132;6.370;2023-01-05T11:58:51;27.27;;;8.52;;
51943;SDS011;37969;53.132;6.370;2023-01-05T12:04:02;34.97;;;10.50;;
51943;SDS011;37969;53.132;6.370;2023-01-05T12:09:04;36.42;;;11.90;;
51943;SDS011;37969;53.132;6.370;2023-01-05T12:11:42;35.00;;;11.90;;
51943;SDS011;37969;53.132;6.370;2023-01-05T12:14:17;44.25;;;18.58;;
51943;SDS011;37969;53.132;6.370;2023-01-05T12:16:52;38.38;;;11.95;;
51943;SDS011;37969;53.132;6.370;2023-01-05T12:19:23;29.38;;;6.13;;
51943;SDS011;37969;53.132;6.370;2023-01-05T12:21:58;30.58;;;6.55;;
51943;SDS011;37969;53.132;6.370;2023-01-05T12:32:12;32.83;;;6.38;;
51943;SDS011;37969;53.132;6.370;2023-01-05T12:34:53;32.00;;;5.65;;
51943;SDS011;37969;53.132;6.370;2023-01-05T12:40:02;27.83;;;6.03;;
51943;SDS011;37969;53.132;6.370;2023-01-05T12:42:43;24.77;;;5.38;;
51943;SDS011;37969;53.132;6.370;2023-01-05T12:45:19;31.60;;;4.63;;
51943;SDS011;37969;53.132;6.370;2023-01-05T12:50:25;23.98;;;4.15;;
51943;SDS011;37969;53.132;6.370;2023-01-05T12:52:55;28.45;;;5.35;;
51943;SDS011;37969;53.132;6.370;2023-01-05T12:55:27;21.95;;;4.47;;
51943;SDS011;37969;53.132;6.370;2023-01-05T13:00:21;30.02;;;5.00;;
51943;SDS011;37969;53.132;6.370;2023-01-05T13:02:53;30.63;;;9.75;;
51943;SDS011;37969;53.132;6.370;2023-01-05T13:05:22;32.50;;;7.78;;
51943;SDS011;37969;53.132;6.370;2023-01-05T13:07:53;32.10;;;10.30;;
51943;SDS011;37969;53.132;6.370;2023-01-05T13:10:32;37.58;;;13.48;;
51943;SDS011;37969;53.132;6.370;2023-01-05T13:13:03;29.77;;;6.72;;
51943;SDS011;37969;53.132;6.370;2023-01-05T13:15:32;41.97;;;15.02;;
51943;SDS011;37969;53.132;6.370;2023-01-05T13:18:00;44.63;;;15.80;;
51943;SDS011;37969;53.132;6.370;2023-01-05T13:23:02;59.15;;;23.48;;
51943;SDS011;37969;53.132;6.370;2023-01-05T13:25:31;41.30;;;16.45;;
51943;SDS011;37969;53.132;6.370;2023-01-05T13:28:00;26.33;;;5.00;;
51943;SDS011;37969;53.132;6.370;2023-01-05T13:30:28;37.78;;;10.55;;
51943;SDS011;37969;53.132;6.370;2023-01-05T13:38:37;59.90;;;21.15;;
51943;SDS011;37969;53.132;6.370;2023-01-05T13:46:48;45.55;;;11.48;;
51943;SDS011;37969;53.132;6.370;2023-01-05T13:49:26;36.30;;;10.77;;
51943;SDS011;37969;53.132;6.370;2023-01-05T13:51:57;57.42;;;21.48;;
51943;SDS011;37969;53.132;6.370;2023-01-05T13:56:54;111.70;;;47.45;;
51943;SDS011;37969;53.132;6.370;2023-01-05T13:59:25;108.28;;;40.00;;
51943;SDS011;37969;53.132;6.370;2023-01-05T14:01:52;54.45;;;19.98;;
51943;SDS011;37969;53.132;6.370;2023-01-05T14:04:22;38.47;;;7.47;;
51943;SDS011;37969;53.132;6.370;2023-01-05T14:06:51;43.80;;;13.65;;
51943;SDS011;37969;53.132;6.370;2023-01-05T14:09:25;42.45;;;10.65;;
51943;SDS011;37969;53.132;6.370;2023-01-05T14:20:18;30.63;;;6.40;;
51943;SDS011;37969;53.132;6.370;2023-01-05T14:22:51;62.63;;;21.23;;
51943;SDS011;37969;53.132;6.370;2023-01-05T14:30:40;35.67;;;5.80;;
51943;SDS011;37969;53.132;6.370;2023-01-05T14:33:07;32.42;;;5.43;;
51943;SDS011;37969;53.132;6.370;2023-01-05T14:35:34;37.17;;;5.32;;
51943;SDS011;37969;53.132;6.370;2023-01-05T14:40:32;42.60;;;7.30;;
51943;SDS011;37969;53.132;6.370;2023-01-05T14:42:59;35.30;;;5.88;;
51943;SDS011;37969;53.132;6.370;2023-01-05T14:45:29;34.42;;;6.50;;
51943;SDS011;37969;53.132;6.370;2023-01-05T14:47:56;44.40;;;11.07;;
51943;SDS011;37969;53.132;6.370;2023-01-05T14:50:31;47.38;;;9.27;;
51943;SDS011;37969;53.132;6.370;2023-01-05T14:55:35;27.60;;;5.35;;
51943;SDS011;37969;53.132;6.370;2023-01-05T14:58:03;37.58;;;5.22;;
51943;SDS011;37969;53.132;6.370;2023-01-05T15:00:35;31.88;;;5.30;;
51943;SDS011;37969;53.132;6.370;2023-01-05T15:03:07;38.30;;;4.93;;
51943;SDS011;37969;53.132;6.370;2023-01-05T15:05:37;33.58;;;5.25;;
51943;SDS011;37969;53.132;6.370;2023-01-05T15:08:07;32.13;;;5.85;;
51943;SDS011;37969;53.132;6.370;2023-01-05T15:15:45;33.17;;;6.30;;
51943;SDS011;37969;53.132;6.370;2023-01-05T15:26:00;34.22;;;5.43;;
51943;SDS011;37969;53.132;6.370;2023-01-05T15:33:40;32.97;;;6.93;;
51943;SDS011;37969;53.132;6.370;2023-01-05T15:36:11;37.33;;;5.93;;
51943;SDS011;37969;53.132;6.370;2023-01-05T15:38:43;36.78;;;5.47;;
51943;SDS011;37969;53.132;6.370;2023-01-05T15:41:10;30.35;;;5.78;;
51943;SDS011;37969;53.132;6.370;2023-01-05T15:43:37;41.17;;;6.45;;
51943;SDS011;37969;53.132;6.370;2023-01-05T15:46:04;38.63;;;6.55;;
51943;SDS011;37969;53.132;6.370;2023-01-05T15:48:35;32.40;;;5.18;;
51943;SDS011;37969;53.132;6.370;2023-01-05T15:51:02;41.90;;;5.97;;
51943;SDS011;37969;53.132;6.370;2023-01-05T15:53:31;38.05;;;6.13;;
51943;SDS011;37969;53.132;6.370;2023-01-05T15:55:59;32.88;;;6.13;;
51943;SDS011;37969;53.132;6.370;2023-01-05T15:58:27;37.75;;;6.30;;
51943;SDS011;37969;53.132;6.370;2023-01-05T16:01:00;38.70;;;6.20;;
51943;SDS011;37969;53.132;6.370;2023-01-05T16:03:28;43.97;;;6.35;;
51943;SDS011;37969;53.132;6.370;2023-01-05T16:05:56;42.03;;;6.93;;
51943;SDS011;37969;53.132;6.370;2023-01-05T16:08:22;41.40;;;7.88;;
51943;SDS011;37969;53.132;6.370;2023-01-05T16:10:50;43.25;;;8.02;;
51943;SDS011;37969;53.132;6.370;2023-01-05T16:13:31;53.65;;;8.05;;
51943;SDS011;37969;53.132;6.370;2023-01-05T16:15:58;46.78;;;7.38;;
51943;SDS011;37969;53.132;6.370;2023-01-05T16:18:32;45.22;;;6.85;;
51943;SDS011;37969;53.132;6.370;2023-01-05T16:21:00;44.05;;;7.15;;
51943;SDS011;37969;53.132;6.370;2023-01-05T16:23:35;39.03;;;6.78;;
51943;SDS011;37969;53.132;6.370;2023-01-05T16:26:02;44.28;;;7.40;;
51943;SDS011;37969;53.132;6.370;2023-01-05T16:28:28;58.58;;;8.93;;
51943;SDS011;37969;53.132;6.370;2023-01-05T16:30:54;41.97;;;6.80;;